Peoria Heights, Illinois
Current Conditions -  °F | °C
As of 2:54 AM on Friday 28 Nov 2014 (Local Time) from KPIA Reporting Station
Overcast Overcast  
Wind Chill: -12°   Ceiling: 7500
Heat Index: -7°   Visibility: 10mi
Dew Point: -13°   Wind: 7mph
Humidity: 65%   Direction: 160°SSE
Pressure: 30.36"   Gusts: NA
Location:  40.7452°N, 89.5738°W
Report Text: KPIA 280854Z 16006KT 10SM FEW055 OVC075 M07/M13 A3036 RMK AO2 SLP290 T10721128 58018
Loading
Personal Weather Stations






























Interactive Weather Map New forecast layout! Learn more

10-Day Weather Forecast

Advertisements
Track Severe Weather on mobile